createdAt,value
2022-08-22T00:01:32.691Z,19.35
2022-08-22T00:02:45.053Z,24.04
2022-08-22T00:02:47.882Z,23.82
2022-08-22T00:02:59.185Z,20.14
2022-08-22T00:03:10.107Z,21.30
2022-08-22T00:03:59.246Z,19.14
2022-08-22T00:06:31.757Z,19.12
2022-08-22T00:09:42.771Z,19.11
2022-08-22T00:12:18.695Z,18.77
2022-08-22T00:14:58.290Z,18.48
2022-08-22T00:17:53.151Z,18.69
2022-08-22T00:20:30.311Z,18.87
2022-08-22T00:23:25.240Z,19.10
2022-08-22T00:26:03.383Z,19.17
2022-08-22T00:29:01.322Z,19.07
2022-08-22T00:31:46.088Z,19.20
2022-08-22T00:34:17.205Z,19.42
2022-08-22T00:36:51.349Z,19.44
2022-08-22T00:39:28.776Z,19.17
2022-08-22T00:42:08.811Z,19.46
2022-08-22T00:44:47.359Z,19.48
2022-08-22T00:47:36.249Z,19.65
2022-08-22T00:50:50.990Z,19.40
2022-08-22T00:53:26.691Z,18.83
2022-08-22T00:56:28.383Z,18.54
2022-08-22T00:59:23.874Z,18.79
2022-08-22T01:02:11.078Z,19.29
2022-08-22T01:04:52.196Z,19.24
2022-08-22T01:08:01.160Z,19.37
2022-08-22T01:10:58.771Z,19.56
2022-08-22T01:13:39.360Z,19.54
2022-08-22T01:16:35.163Z,19.32
2022-08-22T01:19:29.626Z,18.87
2022-08-22T01:22:20.319Z,18.58
2022-08-22T01:25:22.575Z,18.70
2022-08-22T01:28:23.999Z,18.85
2022-08-22T01:31:22.512Z,19.18
2022-08-22T01:34:26.967Z,19.35
2022-08-22T01:37:21.116Z,19.11
2022-08-22T01:40:04.580Z,18.99
2022-08-22T01:42:34.597Z,19.13
2022-08-22T01:45:36.568Z,19.23
2022-08-22T01:48:05.778Z,19.12
2022-08-22T01:50:36.736Z,19.07
2022-08-22T01:53:11.558Z,18.92
2022-08-22T01:56:02.481Z,19.00
2022-08-22T01:58:33.283Z,19.17
2022-08-22T02:01:02.951Z,19.20
2022-08-22T02:03:34.852Z,19.22
2022-08-22T02:06:16.778Z,19.20
2022-08-22T02:09:03.290Z,19.07
2022-08-22T02:11:45.002Z,18.95
2022-08-22T02:14:23.672Z,18.85
2022-08-22T02:17:17.330Z,18.56
2022-08-22T02:19:59.820Z,18.55
2022-08-22T02:22:44.373Z,18.48
2022-08-22T02:25:25.751Z,18.46
2022-08-22T02:28:00.342Z,18.46
2022-08-22T02:30:50.342Z,18.63
2022-08-22T02:33:49.234Z,18.18
2022-08-22T02:36:22.585Z,17.92
2022-08-22T02:39:13.541Z,17.78
2022-08-22T02:41:48.971Z,17.39
2022-08-22T02:44:36.374Z,16.98
2022-08-22T02:47:11.920Z,17.06
2022-08-22T02:49:59.987Z,17.35
2022-08-22T02:52:34.828Z,17.50
2022-08-22T02:55:07.814Z,17.08
2022-08-22T02:57:42.148Z,17.17
2022-08-22T03:00:32.588Z,17.28
2022-08-22T03:02:59.751Z,17.55
2022-08-22T03:05:37.293Z,17.45
2022-08-22T03:08:25.166Z,17.38
2022-08-22T03:11:18.661Z,17.35
2022-08-22T03:14:18.848Z,17.32
2022-08-22T03:17:05.846Z,17.56
2022-08-22T03:19:56.777Z,17.74
2022-08-22T03:22:43.639Z,17.74
2022-08-22T03:25:26.485Z,17.92
2022-08-22T03:28:04.009Z,17.84
2022-08-22T03:30:40.584Z,17.71
2022-08-22T03:33:22.729Z,17.55
2022-08-22T03:35:49.866Z,17.35
2022-08-22T03:38:34.685Z,17.30
2022-08-22T03:41:43.172Z,17.13
2022-08-22T03:44:45.274Z,17.40
2022-08-22T03:47:28.613Z,17.61
2022-08-22T03:50:33.047Z,17.50
2022-08-22T03:53:33.895Z,17.61
2022-08-22T03:56:22.221Z,17.80
2022-08-22T03:59:10.125Z,17.90
2022-08-22T04:01:46.165Z,17.88
2022-08-22T04:04:31.742Z,17.90
2022-08-22T04:07:36.022Z,18.14
2022-08-22T04:10:27.128Z,17.86
2022-08-22T04:13:29.923Z,17.95
2022-08-22T04:16:08.571Z,18.01
2022-08-22T04:18:43.948Z,17.78
2022-08-22T04:21:14.809Z,17.98
2022-08-22T04:24:26.637Z,17.98
2022-08-22T04:27:01.777Z,17.57
2022-08-22T04:29:38.753Z,17.15
2022-08-22T04:32:20.055Z,16.59
2022-08-22T04:35:06.978Z,16.63
2022-08-22T04:37:46.999Z,16.63
2022-08-22T04:40:34.183Z,17.24
2022-08-22T04:43:13.126Z,17.61
2022-08-22T04:45:42.885Z,17.54
2022-08-22T04:48:20.551Z,17.70
2022-08-22T04:50:56.282Z,17.71
2022-08-22T04:53:47.817Z,17.81
2022-08-22T04:56:33.183Z,17.56
2022-08-22T04:59:20.065Z,17.48
2022-08-22T05:01:55.239Z,17.51
2022-08-22T05:04:27.903Z,17.53
2022-08-22T05:07:18.141Z,17.79
2022-08-22T05:10:11.630Z,17.72
2022-08-22T05:13:05.106Z,17.53
2022-08-22T05:15:38.239Z,17.40
2022-08-22T05:18:09.393Z,17.36
2022-08-22T05:20:39.600Z,17.58
2022-08-22T05:23:17.814Z,17.52
2022-08-22T05:25:46.964Z,17.47
2022-08-22T05:28:28.723Z,17.51
2022-08-22T05:30:56.220Z,17.48
2022-08-22T05:33:29.868Z,17.49
2022-08-22T05:36:30.784Z,17.70
2022-08-22T05:39:03.317Z,17.62
2022-08-22T05:41:36.112Z,17.63
2022-08-22T05:44:04.220Z,17.76
2022-08-22T05:46:44.489Z,17.74
2022-08-22T05:49:34.361Z,17.74
2022-08-22T05:52:36.990Z,17.74
2022-08-22T05:55:06.953Z,17.79
2022-08-22T05:57:37.979Z,17.86
2022-08-22T06:00:12.821Z,17.60
2022-08-22T06:02:58.019Z,17.63
2022-08-22T06:05:31.317Z,17.55
2022-08-22T06:08:07.587Z,17.51
2022-08-22T06:10:40.037Z,17.64
2022-08-22T06:13:11.545Z,17.67
2022-08-22T06:15:52.702Z,17.69
2022-08-22T06:18:27.205Z,17.66
2022-08-22T06:20:55.501Z,17.91
2022-08-22T06:23:41.647Z,18.23
2022-08-22T06:26:21.036Z,18.42
2022-08-22T06:28:55.333Z,18.36
2022-08-22T06:31:35.734Z,18.42
2022-08-22T06:34:13.171Z,18.56
2022-08-22T06:36:43.602Z,18.61
2022-08-22T06:39:18.535Z,18.68
2022-08-22T06:41:53.685Z,18.55
2022-08-22T06:44:23.917Z,18.61
2022-08-22T06:46:54.422Z,18.70
2022-08-22T06:49:23.262Z,18.72
2022-08-22T06:51:50.711Z,18.58
2022-08-22T06:54:22.002Z,18.52
2022-08-22T06:56:50.547Z,18.64
2022-08-22T06:59:26.303Z,18.65
2022-08-22T07:02:03.553Z,18.70
2022-08-22T07:04:31.142Z,18.86
2022-08-22T07:07:00.736Z,18.73
2022-08-22T07:09:40.278Z,18.77
2022-08-22T07:12:19.413Z,18.91
2022-08-22T07:14:50.537Z,18.95
2022-08-22T07:17:25.415Z,19.14
2022-08-22T07:19:59.556Z,19.11
2022-08-22T07:22:33.096Z,19.34
2022-08-22T07:25:15.573Z,19.36
2022-08-22T07:28:07.671Z,19.49
2022-08-22T07:30:52.754Z,19.55
2022-08-22T07:33:35.838Z,19.24
2022-08-22T07:36:17.624Z,19.33
2022-08-22T07:38:55.886Z,19.43
2022-08-22T07:41:33.975Z,19.44
2022-08-22T07:44:21.459Z,19.42
2022-08-22T07:47:04.657Z,19.66
2022-08-22T07:49:36.855Z,20.08
2022-08-22T07:52:13.679Z,20.22
2022-08-22T07:54:47.075Z,20.10
2022-08-22T07:57:24.668Z,20.30
2022-08-22T07:59:54.910Z,20.39
2022-08-22T08:02:24.240Z,20.43
2022-08-22T08:04:55.050Z,20.55
2022-08-22T08:07:25.865Z,20.50
2022-08-22T08:10:12.472Z,20.61
2022-08-22T08:12:56.128Z,20.78
2022-08-22T08:15:32.558Z,20.94
2022-08-22T08:18:05.357Z,20.93
2022-08-22T08:20:35.935Z,21.17
2022-08-22T08:25:32.216Z,21.48
2022-08-22T08:28:18.933Z,21.42
2022-08-22T08:30:57.003Z,21.43
2022-08-22T08:33:28.103Z,21.36
2022-08-22T08:36:02.540Z,21.34
2022-08-22T08:38:44.197Z,21.49
2022-08-22T08:41:38.683Z,21.47
2022-08-22T08:44:35.695Z,21.93
2022-08-22T08:47:27.466Z,22.08
2022-08-22T08:49:54.717Z,22.12
2022-08-22T08:52:42.517Z,22.49
2022-08-22T08:55:27.999Z,22.35
2022-08-22T08:58:07.103Z,22.26
2022-08-22T09:00:51.163Z,22.39
2022-08-22T09:03:47.619Z,22.30
2022-08-22T09:06:59.234Z,22.80
2022-08-22T09:09:46.835Z,22.79
2022-08-22T09:13:11.475Z,22.70
2022-08-22T09:16:15.479Z,22.77
2022-08-22T09:19:14.160Z,22.90
2022-08-22T09:22:14.599Z,23.27
2022-08-22T09:24:51.764Z,23.23
2022-08-22T09:27:34.454Z,22.92
2022-08-22T09:30:07.621Z,23.55
2022-08-22T09:32:44.015Z,23.42
2022-08-22T09:35:43.956Z,23.67
2022-08-22T09:38:30.808Z,23.74
2022-08-22T09:41:27.084Z,23.80
2022-08-22T09:44:34.885Z,23.82
2022-08-22T09:47:17.631Z,23.76
2022-08-22T09:50:12.334Z,24.11
2022-08-22T09:53:13.897Z,24.16
2022-08-22T09:55:59.566Z,24.20
2022-08-22T09:58:40.756Z,24.07
2022-08-22T10:01:32.766Z,24.07
2022-08-22T10:04:19.577Z,24.32
2022-08-22T10:07:11.728Z,24.24
2022-08-22T10:09:57.466Z,24.26
2022-08-22T10:12:48.724Z,24.29
2022-08-22T10:15:39.412Z,24.39
2022-08-22T10:18:29.260Z,24.34
2022-08-22T10:21:37.531Z,24.56
2022-08-22T10:24:04.087Z,24.69
2022-08-22T10:26:45.791Z,24.83
2022-08-22T10:29:37.638Z,25.09
2022-08-22T10:32:34.279Z,24.61
2022-08-22T10:35:20.023Z,24.79
2022-08-22T10:38:17.662Z,25.26
2022-08-22T10:41:09.411Z,25.35
2022-08-22T10:43:48.862Z,25.35
2022-08-22T10:46:33.178Z,25.14
2022-08-22T10:49:10.503Z,25.12
2022-08-22T10:51:43.645Z,25.23
2022-08-22T10:54:29.574Z,25.36
2022-08-22T10:57:20.581Z,25.27
2022-08-22T11:00:06.333Z,25.38
2022-08-22T11:02:38.366Z,25.39
2022-08-22T11:05:14.610Z,25.37
2022-08-22T11:07:41.514Z,25.52
2022-08-22T11:10:23.054Z,25.75
2022-08-22T11:13:09.122Z,25.83
2022-08-22T11:16:05.047Z,26.12
2022-08-22T11:19:15.091Z,26.14
2022-08-22T11:21:54.350Z,25.74
2022-08-22T11:24:34.677Z,25.68
2022-08-22T11:27:35.187Z,25.82
2022-08-22T11:30:18.706Z,26.21
2022-08-22T11:32:49.669Z,26.08
2022-08-22T11:35:24.171Z,26.33
2022-08-22T11:38:05.006Z,26.74
2022-08-22T11:41:00.547Z,26.59
2022-08-22T11:43:54.816Z,26.57
2022-08-22T11:46:30.940Z,26.27
2022-08-22T11:49:25.622Z,26.30
2022-08-22T11:51:53.571Z,26.04
2022-08-22T11:54:44.739Z,25.94
2022-08-22T11:57:19.335Z,26.23
2022-08-22T11:59:45.843Z,26.34
2022-08-22T12:02:19.444Z,26.51
2022-08-22T12:04:52.983Z,26.68
2022-08-22T12:07:30.176Z,26.68
2022-08-22T12:10:13.491Z,26.82
2022-08-22T12:13:00.952Z,26.79
2022-08-22T12:15:33.304Z,27.33
2022-08-22T12:18:21.838Z,27.28
2022-08-22T12:21:26.609Z,27.04
2022-08-22T12:24:19.367Z,27.67
2022-08-22T12:27:09.260Z,27.34
2022-08-22T12:29:45.007Z,27.80
2022-08-22T12:32:27.511Z,27.93
2022-08-22T12:35:14.050Z,27.90
2022-08-22T12:37:52.736Z,27.21
2022-08-22T12:40:40.259Z,27.68
2022-08-22T12:43:25.546Z,27.61
2022-08-22T12:46:16.398Z,27.05
2022-08-22T12:49:07.827Z,27.10
2022-08-22T12:51:58.066Z,27.08
2022-08-22T12:54:52.104Z,27.13
2022-08-22T12:57:39.262Z,27.25
2022-08-22T13:00:40.376Z,26.93
2022-08-22T13:03:12.775Z,27.16
2022-08-22T13:05:43.856Z,27.29
2022-08-22T13:08:17.516Z,26.77
2022-08-22T13:10:46.397Z,27.09
2022-08-22T13:13:36.391Z,27.17
2022-08-22T13:16:13.548Z,27.21
2022-08-22T13:18:47.705Z,27.74
2022-08-22T13:21:31.511Z,27.84
2022-08-22T13:24:10.642Z,28.01
2022-08-22T13:26:58.034Z,28.17
2022-08-22T13:29:43.022Z,27.84
2022-08-22T13:32:23.496Z,27.96
2022-08-22T13:34:56.283Z,28.30
2022-08-22T13:37:30.095Z,27.91
2022-08-22T13:40:01.899Z,28.35
2022-08-22T13:42:31.838Z,28.50
2022-08-22T13:45:05.159Z,28.74
2022-08-22T13:47:35.903Z,29.03
2022-08-22T13:50:14.667Z,28.52
2022-08-22T13:53:14.494Z,27.62
2022-08-22T13:55:55.375Z,27.43
2022-08-22T13:58:40.652Z,27.66
2022-08-22T14:01:28.681Z,28.57
2022-08-22T14:04:00.546Z,29.00
2022-08-22T14:06:37.797Z,28.03
2022-08-22T14:09:30.682Z,28.06
2022-08-22T14:12:22.814Z,28.28
2022-08-22T14:14:56.833Z,27.65
2022-08-22T14:17:32.624Z,27.54
2022-08-22T14:20:06.883Z,27.95
2022-08-22T14:22:40.655Z,27.73
2022-08-22T14:25:16.924Z,27.54
2022-08-22T14:27:57.641Z,27.23
2022-08-22T14:30:32.850Z,27.54
2022-08-22T14:33:34.195Z,28.04
2022-08-22T14:36:11.470Z,27.88
2022-08-22T14:38:48.523Z,27.56
2022-08-22T14:41:52.783Z,27.55
2022-08-22T14:44:26.754Z,27.25
2022-08-22T14:47:04.180Z,28.51
2022-08-22T14:49:57.679Z,28.74
2022-08-22T14:52:35.775Z,28.55
2022-08-22T14:55:20.785Z,28.35
2022-08-22T14:57:56.167Z,28.30
2022-08-22T15:00:31.289Z,28.27
2022-08-22T15:03:25.213Z,27.96
2022-08-22T15:05:54.545Z,27.88
2022-08-22T15:08:32.316Z,28.03
2022-08-22T15:11:32.096Z,27.75
2022-08-22T15:14:08.310Z,28.68
2022-08-22T15:16:50.419Z,28.72
2022-08-22T15:19:34.607Z,29.34
2022-08-22T15:22:22.146Z,29.14
2022-08-22T15:24:58.017Z,28.36
2022-08-22T15:27:26.536Z,27.85
2022-08-22T15:29:58.534Z,27.99
2022-08-22T15:32:28.883Z,27.79
2022-08-22T15:35:15.268Z,28.24
2022-08-22T15:38:00.507Z,28.56
2022-08-22T15:40:33.481Z,28.12
2022-08-22T15:43:13.102Z,28.60
2022-08-22T15:45:42.132Z,28.20
2022-08-22T15:48:31.066Z,28.10
2022-08-22T15:51:02.410Z,28.10
2022-08-22T15:53:45.365Z,28.09
2022-08-22T15:56:11.906Z,28.57
2022-08-22T15:58:48.877Z,28.51
2022-08-22T16:01:25.586Z,27.92
2022-08-22T16:03:58.630Z,27.83
2022-08-22T16:06:49.061Z,27.44
2022-08-22T16:09:40.631Z,27.92
2022-08-22T16:12:25.119Z,28.16
2022-08-22T16:14:53.319Z,28.10
2022-08-22T16:17:26.104Z,28.42
2022-08-22T16:20:07.987Z,28.07
2022-08-22T16:22:58.380Z,28.04
2022-08-22T16:26:05.851Z,27.83
2022-08-22T16:28:58.284Z,28.00
2022-08-22T16:31:43.919Z,27.93
2022-08-22T16:34:16.559Z,28.17
2022-08-22T16:37:11.140Z,27.86
2022-08-22T16:39:48.379Z,27.78
2022-08-22T16:42:15.615Z,27.73
2022-08-22T16:44:45.003Z,27.81
2022-08-22T16:47:11.531Z,27.72
2022-08-22T16:49:56.634Z,27.68
2022-08-22T16:52:26.313Z,27.78
2022-08-22T16:55:25.812Z,27.68
2022-08-22T16:58:35.818Z,27.55
2022-08-22T17:01:15.709Z,27.76
2022-08-22T17:03:58.618Z,27.36
2022-08-22T17:06:45.232Z,28.06
2022-08-22T17:09:30.569Z,28.06
2022-08-22T17:12:10.881Z,27.86
2022-08-22T17:14:59.127Z,27.80
2022-08-22T17:17:50.526Z,27.76
2022-08-22T17:20:40.582Z,27.72
2022-08-22T17:23:52.314Z,27.90
2022-08-22T17:26:19.797Z,27.98
2022-08-22T17:29:02.964Z,28.05
2022-08-22T17:31:41.602Z,27.67
2022-08-22T17:34:14.185Z,27.20
2022-08-22T17:37:11.000Z,27.39
2022-08-22T17:39:42.611Z,27.35
2022-08-22T17:42:24.277Z,27.42
2022-08-22T17:45:02.157Z,27.45
2022-08-22T17:47:39.103Z,27.20
2022-08-22T17:50:44.262Z,27.13
2022-08-22T17:53:28.748Z,27.12
2022-08-22T17:56:05.238Z,27.27
2022-08-22T17:58:44.058Z,27.04
2022-08-22T18:01:16.603Z,26.96
2022-08-22T18:03:51.979Z,26.85
2022-08-22T18:06:28.430Z,26.92
2022-08-22T18:09:15.436Z,26.82
2022-08-22T18:11:55.079Z,26.68
2022-08-22T18:14:30.426Z,26.86
2022-08-22T18:17:00.130Z,26.77
2022-08-22T18:19:45.367Z,26.37
2022-08-22T18:22:25.954Z,26.53
2022-08-22T18:25:03.353Z,26.57
2022-08-22T18:27:43.572Z,26.50
2022-08-22T18:30:28.259Z,26.21
2022-08-22T18:33:31.657Z,26.38
2022-08-22T18:36:07.714Z,26.27
2022-08-22T18:38:56.185Z,26.47
2022-08-22T18:41:32.221Z,26.40
2022-08-22T18:43:59.928Z,26.37
2022-08-22T18:46:38.763Z,26.33
2022-08-22T18:49:20.603Z,25.97
2022-08-22T18:52:25.308Z,25.97
2022-08-22T18:55:36.624Z,25.83
2022-08-22T18:58:22.928Z,25.86
2022-08-22T19:01:01.636Z,25.41
2022-08-22T19:03:50.132Z,25.53
2022-08-22T19:06:43.007Z,25.57
2022-08-22T19:09:09.592Z,24.99
2022-08-22T19:11:46.133Z,25.09
2022-08-22T19:14:32.599Z,25.48
2022-08-22T19:17:15.030Z,24.91
2022-08-22T19:20:22.068Z,24.64
2022-08-22T19:22:50.918Z,24.63
2022-08-22T19:25:26.295Z,24.66
2022-08-22T19:28:11.347Z,24.44
2022-08-22T19:30:50.044Z,24.72
2022-08-22T19:33:27.676Z,24.48
2022-08-22T19:36:11.643Z,24.28
2022-08-22T19:38:59.879Z,24.32
2022-08-22T19:41:39.215Z,24.80
2022-08-22T19:44:33.633Z,24.44
2022-08-22T19:47:37.804Z,24.06
2022-08-22T19:50:33.174Z,24.67
2022-08-22T19:53:21.340Z,24.28
2022-08-22T19:56:15.986Z,24.48
2022-08-22T19:58:58.599Z,24.05
2022-08-22T20:02:07.240Z,23.98
2022-08-22T20:05:00.600Z,24.09
2022-08-22T20:07:45.475Z,23.72
2022-08-22T20:10:25.713Z,23.79
2022-08-22T20:13:07.486Z,23.73
2022-08-22T20:16:03.194Z,23.78
2022-08-22T20:19:05.503Z,24.06
2022-08-22T20:21:53.673Z,24.12
2022-08-22T20:24:58.299Z,23.80
2022-08-22T20:27:27.754Z,24.00
2022-08-22T20:30:04.438Z,24.10
2022-08-22T20:32:37.622Z,24.19
2022-08-22T20:35:05.605Z,23.76
2022-08-22T20:38:05.228Z,23.65
2022-08-22T20:40:53.537Z,23.28
2022-08-22T20:43:32.782Z,24.06
2022-08-22T20:46:32.700Z,23.40
2022-08-22T20:49:01.074Z,23.42
2022-08-22T20:51:30.090Z,23.21
2022-08-22T20:54:10.018Z,23.30
2022-08-22T20:56:53.273Z,23.69
2022-08-22T20:59:39.302Z,23.54
2022-08-22T21:02:20.424Z,23.73
2022-08-22T21:04:46.805Z,23.40
2022-08-22T21:07:24.511Z,23.52
2022-08-22T21:10:23.086Z,23.79
2022-08-22T21:13:42.170Z,23.73
2022-08-22T21:16:18.378Z,23.48
2022-08-22T21:18:53.068Z,23.33
2022-08-22T21:21:36.267Z,23.23
2022-08-22T21:24:08.132Z,23.29
2022-08-22T21:26:47.600Z,23.37
2022-08-22T21:29:14.121Z,23.38
2022-08-22T21:31:53.282Z,23.47
2022-08-22T21:34:29.454Z,23.38
2022-08-22T21:37:02.217Z,23.16
2022-08-22T21:39:34.558Z,23.09
2022-08-22T21:42:01.089Z,23.16
2022-08-22T21:44:30.555Z,22.99
2022-08-22T21:47:14.654Z,23.04
2022-08-22T21:50:07.096Z,23.08
2022-08-22T21:52:37.917Z,23.07
2022-08-22T21:55:26.366Z,23.07
2022-08-22T21:58:35.478Z,22.96
2022-08-22T22:01:25.049Z,22.90
2022-08-22T22:03:54.055Z,22.93
2022-08-22T22:06:20.738Z,23.04
2022-08-22T22:08:47.322Z,23.06
2022-08-22T22:11:15.537Z,22.92
2022-08-22T22:13:42.422Z,22.99
2022-08-22T22:16:12.046Z,23.07
2022-08-22T22:18:39.630Z,22.86
2022-08-22T22:21:06.393Z,22.74
2022-08-22T22:23:33.252Z,22.69
2022-08-22T22:26:02.397Z,22.33
2022-08-22T22:28:36.588Z,22.65
2022-08-22T22:31:03.672Z,22.76
2022-08-22T22:33:34.204Z,22.80
2022-08-22T22:36:08.008Z,22.67
2022-08-22T22:38:34.647Z,22.72
2022-08-22T22:41:01.225Z,22.54
2022-08-22T22:43:27.839Z,22.41
2022-08-22T22:45:54.629Z,22.31
2022-08-22T22:48:24.504Z,22.57
2022-08-22T22:50:52.733Z,22.51
2022-08-22T22:53:21.307Z,22.65
2022-08-22T22:56:00.067Z,22.60
2022-08-22T22:58:28.606Z,22.40
2022-08-22T23:00:55.820Z,22.23
2022-08-22T23:03:22.995Z,22.16
2022-08-22T23:05:49.624Z,22.32
2022-08-22T23:08:16.212Z,22.18
2022-08-22T23:10:42.841Z,22.18
2022-08-22T23:13:09.491Z,22.15
2022-08-22T23:15:37.048Z,22.35
2022-08-22T23:18:03.660Z,22.28
2022-08-22T23:20:30.272Z,22.19
2022-08-22T23:22:56.941Z,22.27
2022-08-22T23:25:23.654Z,22.33
2022-08-22T23:27:52.606Z,22.32
2022-08-22T23:30:20.028Z,22.36
2022-08-22T23:32:46.600Z,22.30
2022-08-22T23:35:13.433Z,22.20
2022-08-22T23:37:39.991Z,22.18
2022-08-22T23:40:10.512Z,22.13
2022-08-22T23:42:37.168Z,22.22
2022-08-22T23:45:04.363Z,21.97
2022-08-22T23:47:30.910Z,22.12
2022-08-22T23:49:57.484Z,22.16
2022-08-22T23:52:24.648Z,22.16
2022-08-22T23:54:54.296Z,22.10
2022-08-22T23:57:26.346Z,22.06
2022-08-22T23:59:57.692Z,22.00
